sensor_id;sensor_type;location;lat;lon;timestamp;pressure;altitude;pressure_sealevel;temperature;humidity
51261;BME280;61705;46.228;24.812;2023-02-18T00:01:46;97782.91;;;0.69;93.01
51261;BME280;61705;46.228;24.812;2023-02-18T00:04:16;97781.16;;;0.68;93.09
51261;BME280;61705;46.228;24.812;2023-02-18T00:06:43;97782.00;;;0.71;93.28
51261;BME280;61705;46.228;24.812;2023-02-18T00:09:12;97769.88;;;0.70;93.46
51261;BME280;61705;46.228;24.812;2023-02-18T00:11:42;97767.22;;;0.80;93.24
51261;BME280;61705;46.228;24.812;2023-02-18T00:14:13;97762.03;;;0.80;93.37
51261;BME280;61705;46.228;24.812;2023-02-18T00:16:41;97754.22;;;0.83;93.60
51261;BME280;61705;46.228;24.812;2023-02-18T00:19:13;97762.88;;;0.82;93.20
51261;BME280;61705;46.228;24.812;2023-02-18T00:21:41;97763.75;;;0.81;93.31
51261;BME280;61705;46.228;24.812;2023-02-18T00:24:13;97762.00;;;0.84;93.23
51261;BME280;61705;46.228;24.812;2023-02-18T00:26:43;97766.31;;;0.87;93.26
51261;BME280;61705;46.228;24.812;2023-02-18T00:29:12;97768.94;;;0.84;93.36
51261;BME280;61705;46.228;24.812;2023-02-18T00:31:47;97772.41;;;0.81;93.48
51261;BME280;61705;46.228;24.812;2023-02-18T00:34:16;97768.06;;;0.82;93.34
51261;BME280;61705;46.228;24.812;2023-02-18T00:36:46;97759.41;;;0.78;93.28
51261;BME280;61705;46.228;24.812;2023-02-18T00:39:18;97757.69;;;0.77;93.30
51261;BME280;61705;46.228;24.812;2023-02-18T00:41:47;97748.16;;;0.81;93.37
51261;BME280;61705;46.228;24.812;2023-02-18T00:44:24;97749.03;;;0.80;93.36
51261;BME280;61705;46.228;24.812;2023-02-18T00:46:56;97751.63;;;0.83;93.22
51261;BME280;61705;46.228;24.812;2023-02-18T00:49:23;97744.66;;;0.83;93.33
51261;BME280;61705;46.228;24.812;2023-02-18T00:51:52;97740.34;;;0.82;93.15
51261;BME280;61705;46.228;24.812;2023-02-18T00:54:21;97730.81;;;0.78;92.96
51261;BME280;61705;46.228;24.812;2023-02-18T00:56:48;97732.56;;;0.78;93.10
51261;BME280;61705;46.228;24.812;2023-02-18T00:59:15;97734.31;;;0.74;93.05
51261;BME280;61705;46.228;24.812;2023-02-18T01:01:41;97728.25;;;0.74;93.36
51261;BME280;61705;46.228;24.812;2023-02-18T01:04:08;97727.38;;;0.71;93.42
51261;BME280;61705;46.228;24.812;2023-02-18T01:06:38;97727.38;;;0.73;93.38
51261;BME280;61705;46.228;24.812;2023-02-18T01:09:05;97710.94;;;0.73;93.29
51261;BME280;61705;46.228;24.812;2023-02-18T01:11:34;97706.56;;;0.79;93.57
51261;BME280;61705;46.228;24.812;2023-02-18T01:14:01;97714.38;;;0.75;93.49
51261;BME280;61705;46.228;24.812;2023-02-18T01:16:28;97714.38;;;0.73;93.57
51261;BME280;61705;46.228;24.812;2023-02-18T01:18:58;97714.41;;;0.67;93.52
51261;BME280;61705;46.228;24.812;2023-02-18T01:21:25;97701.44;;;0.61;93.45
51261;BME280;61705;46.228;24.812;2023-02-18T01:23:51;97699.72;;;0.60;93.55
51261;BME280;61705;46.228;24.812;2023-02-18T01:26:18;97705.78;;;0.57;93.63
51261;BME280;61705;46.228;24.812;2023-02-18T01:28:47;97705.81;;;0.56;93.69
51261;BME280;61705;46.228;24.812;2023-02-18T01:31:16;97703.22;;;0.56;93.63
51261;BME280;61705;46.228;24.812;2023-02-18T01:33:45;97694.53;;;0.57;93.75
51261;BME280;61705;46.228;24.812;2023-02-18T01:36:12;97685.00;;;0.54;93.84
51261;BME280;61705;46.228;24.812;2023-02-18T01:38:39;97689.34;;;0.57;94.07
51261;BME280;61705;46.228;24.812;2023-02-18T01:41:09;97682.38;;;0.60;94.10
51261;BME280;61705;46.228;24.812;2023-02-18T01:43:38;97678.94;;;0.57;94.14
51261;BME280;61705;46.228;24.812;2023-02-18T01:46:19;97678.06;;;0.58;94.16
51261;BME280;61705;46.228;24.812;2023-02-18T01:48:59;97671.09;;;0.61;94.31
51261;BME280;61705;46.228;24.812;2023-02-18T01:51:32;97658.94;;;0.66;94.37
51261;BME280;61705;46.228;24.812;2023-02-18T01:59:29;97641.56;;;0.73;94.41
51261;BME280;61705;46.228;24.812;2023-02-18T02:01:58;97639.88;;;0.67;94.26
51261;BME280;61705;46.228;24.812;2023-02-18T02:04:27;97626.00;;;0.68;94.43
51261;BME280;61705;46.228;24.812;2023-02-18T02:06:57;97615.59;;;0.67;94.25
51261;BME280;61705;46.228;24.812;2023-02-18T02:09:28;97624.31;;;0.63;94.42
51261;BME280;61705;46.228;24.812;2023-02-18T02:12:57;97613.03;;;0.62;94.62
51261;BME280;61705;46.228;24.812;2023-02-18T02:53:30;97606.06;;;0.64;95.27
51261;BME280;61705;46.228;24.812;2023-02-18T02:56:01;97600.91;;;0.63;95.27
51261;BME280;61705;46.228;24.812;2023-02-18T02:58:28;97600.88;;;0.66;95.34
51261;BME280;61705;46.228;24.812;2023-02-18T03:09:34;97597.34;;;0.73;95.35
51261;BME280;61705;46.228;24.812;2023-02-18T03:12:54;97596.47;;;0.74;95.44
51261;BME280;61705;46.228;24.812;2023-02-18T03:21:13;97594.75;;;0.73;95.24
51261;BME280;61705;46.228;24.812;2023-02-18T03:26:27;97594.81;;;0.68;95.19
51261;BME280;61705;46.228;24.812;2023-02-18T03:28:58;97590.47;;;0.69;95.14
51261;BME280;61705;46.228;24.812;2023-02-18T03:31:27;97585.25;;;0.72;95.03
51261;BME280;61705;46.228;24.812;2023-02-18T03:34:06;97575.66;;;0.74;95.15
51261;BME280;61705;46.228;24.812;2023-02-18T03:36:37;97564.38;;;0.75;95.06
51261;BME280;61705;46.228;24.812;2023-02-18T03:39:15;97563.50;;;0.78;94.84
51261;BME280;61705;46.228;24.812;2023-02-18T03:41:43;97553.13;;;0.76;94.79
51261;BME280;61705;46.228;24.812;2023-02-18T03:44:11;97546.19;;;0.75;94.78
51261;BME280;61705;46.228;24.812;2023-02-18T03:46:47;97543.56;;;0.78;94.50
51261;BME280;61705;46.228;24.812;2023-02-18T03:49:17;97553.97;;;0.80;94.43
51261;BME280;61705;46.228;24.812;2023-02-18T03:51:43;97532.28;;;0.79;94.43
51261;BME280;61705;46.228;24.812;2023-02-18T03:54:10;97557.44;;;0.79;94.53
51261;BME280;61705;46.228;24.812;2023-02-18T03:56:37;97546.16;;;0.78;94.70
51261;BME280;61705;46.228;24.812;2023-02-18T03:59:09;97540.09;;;0.78;94.71
51261;BME280;61705;46.228;24.812;2023-02-18T04:01:41;97537.50;;;0.79;94.62
51261;BME280;61705;46.228;24.812;2023-02-18T04:04:08;97529.69;;;0.78;94.72
51261;BME280;61705;46.228;24.812;2023-02-18T04:06:35;97531.41;;;0.80;94.75
51261;BME280;61705;46.228;24.812;2023-02-18T04:09:02;97548.75;;;0.78;94.88
51261;BME280;61705;46.228;24.812;2023-02-18T04:11:41;97541.84;;;0.79;95.04
51261;BME280;61705;46.228;24.812;2023-02-18T04:14:09;97539.22;;;0.80;94.93
51261;BME280;61705;46.228;24.812;2023-02-18T04:16:38;97543.53;;;0.81;95.24
51261;BME280;61705;46.228;24.812;2023-02-18T04:19:05;97541.78;;;0.83;95.28
51261;BME280;61705;46.228;24.812;2023-02-18T04:21:35;97532.25;;;0.84;95.26
51261;BME280;61705;46.228;24.812;2023-02-18T04:24:02;97533.13;;;0.83;95.23
51261;BME280;61705;46.228;24.812;2023-02-18T04:26:28;97520.97;;;0.83;95.39
51261;BME280;61705;46.228;24.812;2023-02-18T04:29:01;97521.84;;;0.84;95.23
51261;BME280;61705;46.228;24.812;2023-02-18T04:31:28;97524.41;;;0.85;95.33
51261;BME280;61705;46.228;24.812;2023-02-18T04:33:54;97526.16;;;0.85;95.20
51261;BME280;61705;46.228;24.812;2023-02-18T04:36:27;97530.50;;;0.84;95.18
51261;BME280;61705;46.228;24.812;2023-02-18T04:38:53;97519.25;;;0.81;95.19
51261;BME280;61705;46.228;24.812;2023-02-18T04:41:22;97526.25;;;0.79;95.41
51261;BME280;61705;46.228;24.812;2023-02-18T04:43:50;97516.66;;;0.81;95.40
51261;BME280;61705;46.228;24.812;2023-02-18T04:46:17;97523.56;;;0.85;95.29
51261;BME280;61705;46.228;24.812;2023-02-18T04:48:43;97524.41;;;0.85;95.06
51261;BME280;61705;46.228;24.812;2023-02-18T04:51:16;97525.31;;;0.83;95.18
51261;BME280;61705;46.228;24.812;2023-02-18T04:53:42;97525.31;;;0.83;95.20
51261;BME280;61705;46.228;24.812;2023-02-18T04:56:11;97529.63;;;0.84;95.29
51261;BME280;61705;46.228;24.812;2023-02-18T04:58:41;97520.09;;;0.86;95.24
51261;BME280;61705;46.228;24.812;2023-02-18T05:01:09;97532.28;;;0.82;95.18
51261;BME280;61705;46.228;24.812;2023-02-18T05:03:37;97527.06;;;0.81;95.15
51261;BME280;61705;46.228;24.812;2023-02-18T05:06:07;97538.38;;;0.77;95.00
51261;BME280;61705;46.228;24.812;2023-02-18T05:08:37;97535.78;;;0.75;95.07
51261;BME280;61705;46.228;24.812;2023-02-18T05:11:09;97528.84;;;0.77;95.17
51261;BME280;61705;46.228;24.812;2023-02-18T05:13:38;97534.88;;;0.82;95.19
51261;BME280;61705;46.228;24.812;2023-02-18T05:16:07;97535.69;;;0.84;95.03
51261;BME280;61705;46.228;24.812;2023-02-18T05:18:36;97544.38;;;0.82;95.37
51261;BME280;61705;46.228;24.812;2023-02-18T05:21:03;97540.97;;;0.80;95.18
51261;BME280;61705;46.228;24.812;2023-02-18T05:23:35;97545.28;;;0.81;95.19
51261;BME280;61705;46.228;24.812;2023-02-18T05:26:02;97553.91;;;0.84;95.30
51261;BME280;61705;46.228;24.812;2023-02-18T05:28:29;97555.63;;;0.85;95.11
51261;BME280;61705;46.228;24.812;2023-02-18T05:30:58;97551.34;;;0.81;95.13
51261;BME280;61705;46.228;24.812;2023-02-18T05:33:27;97551.34;;;0.80;95.07
51261;BME280;61705;46.228;24.812;2023-02-18T05:35:59;97544.41;;;0.80;95.23
51261;BME280;61705;46.228;24.812;2023-02-18T05:38:26;97542.69;;;0.79;95.46
51261;BME280;61705;46.228;24.812;2023-02-18T05:40:58;97546.94;;;0.89;95.14
51261;BME280;61705;46.228;24.812;2023-02-18T05:43:24;97552.97;;;0.91;94.91
51261;BME280;61705;46.228;24.812;2023-02-18T05:45:51;97546.03;;;0.92;95.06
51261;BME280;61705;46.228;24.812;2023-02-18T05:48:17;97540.81;;;0.97;94.88
51261;BME280;61705;46.228;24.812;2023-02-18T05:50:44;97546.84;;;1.00;94.85
51261;BME280;61705;46.228;24.812;2023-02-18T05:53:11;97548.56;;;1.01;94.75
51261;BME280;61705;46.228;24.812;2023-02-18T05:55:42;97557.25;;;0.99;94.97
51261;BME280;61705;46.228;24.812;2023-02-18T05:58:14;97562.41;;;1.02;95.00
51261;BME280;61705;46.228;24.812;2023-02-18T06:00:42;97548.50;;;1.06;94.97
51261;BME280;61705;46.228;24.812;2023-02-18T06:03:09;97559.72;;;1.09;94.77
51261;BME280;61705;46.228;24.812;2023-02-18T06:05:35;97549.31;;;1.09;94.82
51261;BME280;61705;46.228;24.812;2023-02-18T06:08:05;97554.50;;;1.12;94.58
51261;BME280;61705;46.228;24.812;2023-02-18T06:10:33;97536.28;;;1.14;94.77
51261;BME280;61705;46.228;24.812;2023-02-18T06:13:01;97553.63;;;1.16;94.73
51261;BME280;61705;46.228;24.812;2023-02-18T06:15:29;97542.38;;;1.13;94.87
51261;BME280;61705;46.228;24.812;2023-02-18T06:17:58;97548.34;;;1.19;94.80
51261;BME280;61705;46.228;24.812;2023-02-18T06:20:26;97548.44;;;1.13;94.54
51261;BME280;61705;46.228;24.812;2023-02-18T06:22:52;97547.50;;;1.21;94.33
51261;BME280;61705;46.228;24.812;2023-02-18T06:25:21;97552.63;;;1.25;94.39
51261;BME280;61705;46.228;24.812;2023-02-18T06:27:48;97545.72;;;1.23;94.05
51261;BME280;61705;46.228;24.812;2023-02-18T06:30:20;97563.09;;;1.22;94.45
51261;BME280;61705;46.228;24.812;2023-02-18T06:32:49;97562.22;;;1.22;94.71
51261;BME280;61705;46.228;24.812;2023-02-18T06:35:19;97560.44;;;1.25;94.82
51261;BME280;61705;46.228;24.812;2023-02-18T06:37:47;97553.50;;;1.26;94.65
51261;BME280;61705;46.228;24.812;2023-02-18T06:40:14;97556.09;;;1.26;94.51
51261;BME280;61705;46.228;24.812;2023-02-18T06:42:41;97557.81;;;1.28;94.48
51261;BME280;61705;46.228;24.812;2023-02-18T06:45:08;97551.66;;;1.37;94.50
51261;BME280;61705;46.228;24.812;2023-02-18T06:47:36;97548.19;;;1.38;94.51
51261;BME280;61705;46.228;24.812;2023-02-18T06:50:06;97554.28;;;1.34;94.42
51261;BME280;61705;46.228;24.812;2023-02-18T06:52:33;97550.78;;;1.38;94.26
51261;BME280;61705;46.228;24.812;2023-02-18T06:55:00;97557.69;;;1.39;94.53
51261;BME280;61705;46.228;24.812;2023-02-18T06:57:28;97555.97;;;1.38;94.60
51261;BME280;61705;46.228;24.812;2023-02-18T06:59:58;97553.31;;;1.42;94.57
51261;BME280;61705;46.228;24.812;2023-02-18T07:02:27;97548.03;;;1.49;94.34
51261;BME280;61705;46.228;24.812;2023-02-18T07:04:54;97542.75;;;1.58;94.20
51261;BME280;61705;46.228;24.812;2023-02-18T07:07:25;97533.97;;;1.63;94.00
51261;BME280;61705;46.228;24.812;2023-02-18T07:09:51;97541.75;;;1.68;93.76
51261;BME280;61705;46.228;24.812;2023-02-18T07:12:18;97531.38;;;1.65;93.75
51261;BME280;61705;46.228;24.812;2023-02-18T07:14:48;97533.91;;;1.70;93.75
51261;BME280;61705;46.228;24.812;2023-02-18T07:17:17;97530.38;;;1.75;93.78
51261;BME280;61705;46.228;24.812;2023-02-18T07:19:47;97536.31;;;1.83;93.09
51261;BME280;61705;46.228;24.812;2023-02-18T07:22:13;97527.53;;;1.90;93.31
51261;BME280;61705;46.228;24.812;2023-02-18T07:24:41;97525.78;;;1.93;93.13
51261;BME280;61705;46.228;24.812;2023-02-18T07:27:11;97534.44;;;1.95;93.36
51261;BME280;61705;46.228;24.812;2023-02-18T07:29:40;97528.47;;;1.86;93.49
51261;BME280;61705;46.228;24.812;2023-02-18T07:32:07;97525.91;;;1.83;93.98
51261;BME280;61705;46.228;24.812;2023-02-18T07:34:36;97527.59;;;1.87;94.16
51261;BME280;61705;46.228;24.812;2023-02-18T07:37:02;97523.34;;;1.82;94.32
51261;BME280;61705;46.228;24.812;2023-02-18T07:39:35;97533.81;;;1.76;94.84
51261;BME280;61705;46.228;24.812;2023-02-18T07:42:05;97533.97;;;1.65;95.08
51261;BME280;61705;46.228;24.812;2023-02-18T07:44:33;97522.56;;;1.74;94.74
51261;BME280;61705;46.228;24.812;2023-02-18T07:46:59;97526.69;;;1.90;94.27
51261;BME280;61705;46.228;24.812;2023-02-18T07:49:27;97518.06;;;1.86;94.22
51261;BME280;61705;46.228;24.812;2023-02-18T07:51:57;97540.59;;;1.87;94.39
51261;BME280;61705;46.228;24.812;2023-02-18T07:54:28;97538.19;;;1.74;nan
51261;BME280;61705;46.228;24.812;2023-02-18T07:56:57;97538.31;;;1.64;94.86
51261;BME280;61705;46.228;24.812;2023-02-18T07:59:26;97524.41;;;1.65;94.99
51261;BME280;61705;46.228;24.812;2023-02-18T08:01:55;97538.09;;;1.81;94.98
51261;BME280;61705;46.228;24.812;2023-02-18T08:04:25;97544.97;;;1.87;94.74
51261;BME280;61705;46.228;24.812;2023-02-18T08:06:57;97535.31;;;1.95;94.69
51261;BME280;61705;46.228;24.812;2023-02-18T08:09:24;97537.78;;;2.06;94.36
51261;BME280;61705;46.228;24.812;2023-02-18T08:11:51;97526.22;;;2.24;94.21
51261;BME280;61705;46.228;24.812;2023-02-18T08:14:31;97529.38;;;2.43;94.03
51261;BME280;61705;46.228;24.812;2023-02-18T08:17:04;97532.69;;;2.54;93.97
51261;BME280;61705;46.228;24.812;2023-02-18T08:19:45;97522.00;;;2.69;93.88
51261;BME280;61705;46.228;24.812;2023-02-18T08:22:23;97528.66;;;2.87;94.01
51261;BME280;61705;46.228;24.812;2023-02-18T08:24:58;97519.66;;;3.05;93.80
51261;BME280;61705;46.228;24.812;2023-02-18T08:27:25;97529.00;;;3.18;93.93
51261;BME280;61705;46.228;24.812;2023-02-18T08:29:54;97529.63;;;3.29;94.07
51261;BME280;61705;46.228;24.812;2023-02-18T08:32:21;97541.72;;;3.35;94.07
51261;BME280;61705;46.228;24.812;2023-02-18T08:34:56;97531.19;;;3.40;94.23
51261;BME280;61705;46.228;24.812;2023-02-18T08:37:30;97539.75;;;3.46;94.39
51261;BME280;61705;46.228;24.812;2023-02-18T08:40:21;97544.59;;;3.65;94.78
51261;BME280;61705;46.228;24.812;2023-02-18T08:42:52;97534.00;;;3.72;94.40
51261;BME280;61705;46.228;24.812;2023-02-18T08:45:22;97536.69;;;3.69;94.61
51261;BME280;61705;46.228;24.812;2023-02-18T08:47:56;97549.78;;;3.68;94.70
51261;BME280;61705;46.228;24.812;2023-02-18T08:50:45;97548.75;;;3.75;94.93
51261;BME280;61705;46.228;24.812;2023-02-18T08:53:12;97548.75;;;3.75;94.85
51261;BME280;61705;46.228;24.812;2023-02-18T08:55:39;97555.44;;;3.90;95.14
51261;BME280;61705;46.228;24.812;2023-02-18T08:58:06;97537.03;;;3.94;94.92
51261;BME280;61705;46.228;24.812;2023-02-18T09:00:38;97560.41;;;4.02;94.69
51261;BME280;61705;46.228;24.812;2023-02-18T09:03:16;97542.66;;;4.16;94.94
51261;BME280;61705;46.228;24.812;2023-02-18T09:05:52;97551.94;;;4.31;94.37
51261;BME280;61705;46.228;24.812;2023-02-18T09:08:27;97547.31;;;4.42;94.35
51261;BME280;61705;46.228;24.812;2023-02-18T09:11:04;97540.56;;;4.32;94.18
51261;BME280;61705;46.228;24.812;2023-02-18T09:13:38;97556.91;;;4.42;94.35
51261;BME280;61705;46.228;24.812;2023-02-18T09:16:13;97553.13;;;4.55;94.39
51261;BME280;61705;46.228;24.812;2023-02-18T09:18:45;97545.47;;;4.82;94.22
51261;BME280;61705;46.228;24.812;2023-02-18T09:21:13;97536.50;;;4.92;93.90
51261;BME280;61705;46.228;24.812;2023-02-18T09:23:49;97539.88;;;4.97;93.65
51261;BME280;61705;46.228;24.812;2023-02-18T09:26:17;97536.25;;;5.03;93.73
51261;BME280;61705;46.228;24.812;2023-02-18T09:28:48;97541.06;;;5.18;93.35
51261;BME280;61705;46.228;24.812;2023-02-18T09:31:22;97544.53;;;5.18;93.28
51261;BME280;61705;46.228;24.812;2023-02-18T09:33:53;97540.84;;;5.27;93.01
51261;BME280;61705;46.228;24.812;2023-02-18T09:36:21;97557.44;;;5.26;92.60
51261;BME280;61705;46.228;24.812;2023-02-18T09:38:51;97559.91;;;5.32;92.95
51261;BME280;61705;46.228;24.812;2023-02-18T09:44:01;97550.16;;;5.37;92.80
51261;BME280;61705;46.228;24.812;2023-02-18T09:46:32;97541.91;;;5.18;92.80
51261;BME280;61705;46.228;24.812;2023-02-18T09:49:03;97532.31;;;5.19;93.11
51261;BME280;61705;46.228;24.812;2023-02-18T09:51:31;97545.38;;;5.20;93.05
51261;BME280;61705;46.228;24.812;2023-02-18T09:54:00;97533.69;;;5.32;93.00
51261;BME280;61705;46.228;24.812;2023-02-18T09:56:30;97530.06;;;5.38;92.54
51261;BME280;61705;46.228;24.812;2023-02-18T09:59:02;97530.06;;;5.38;92.33
51261;BME280;61705;46.228;24.812;2023-02-18T10:01:36;97540.47;;;5.41;92.11
51261;BME280;61705;46.228;24.812;2023-02-18T10:04:08;97531.81;;;5.37;91.89
51261;BME280;61705;46.228;24.812;2023-02-18T10:06:37;97538.03;;;5.33;91.95
51261;BME280;61705;46.228;24.812;2023-02-18T10:09:21;97542.38;;;5.34;91.96
51261;BME280;61705;46.228;24.812;2023-02-18T10:11:54;97540.56;;;5.36;91.76
51261;BME280;61705;46.228;24.812;2023-02-18T10:14:21;97517.91;;;5.35;91.61
51261;BME280;61705;46.228;24.812;2023-02-18T10:16:48;97515.84;;;5.46;91.51
51261;BME280;61705;46.228;24.812;2023-02-18T10:22:13;97525.53;;;5.74;90.37
51261;BME280;61705;46.228;24.812;2023-02-18T10:27:09;97510.59;;;6.09;90.04
51261;BME280;61705;46.228;24.812;2023-02-18T10:29:40;97516.81;;;6.05;89.78
51261;BME280;61705;46.228;24.812;2023-02-18T10:34:47;97500.69;;;5.87;90.30
51261;BME280;61705;46.228;24.812;2023-02-18T10:47:38;97495.31;;;5.62;91.76
51261;BME280;61705;46.228;24.812;2023-02-18T10:50:09;97495.69;;;5.49;92.18
51261;BME280;61705;46.228;24.812;2023-02-18T10:52:41;97495.09;;;5.39;92.33
51261;BME280;61705;46.228;24.812;2023-02-18T10:55:09;97509.19;;;5.33;92.42
51261;BME280;61705;46.228;24.812;2023-02-18T10:57:48;97500.69;;;5.27;92.72
51261;BME280;61705;46.228;24.812;2023-02-18T11:00:24;97489.78;;;5.09;93.23
51261;BME280;61705;46.228;24.812;2023-02-18T11:05:35;97503.00;;;5.05;93.61
51261;BME280;61705;46.228;24.812;2023-02-18T11:08:06;97502.84;;;5.11;93.43
51261;BME280;61705;46.228;24.812;2023-02-18T11:10:39;97512.19;;;5.21;93.33
51261;BME280;61705;46.228;24.812;2023-02-18T11:13:08;97514.88;;;5.18;93.08
51261;BME280;61705;46.228;24.812;2023-02-18T11:15:38;97511.63;;;5.08;93.51
51261;BME280;61705;46.228;24.812;2023-02-18T11:20:55;97507.09;;;5.15;93.75
51261;BME280;61705;46.228;24.812;2023-02-18T11:23:21;97504.72;;;5.06;93.60
51261;BME280;61705;46.228;24.812;2023-02-18T11:28:26;97510.13;;;4.99;93.96
51261;BME280;61705;46.228;24.812;2023-02-18T11:30:55;97502.09;;;5.06;94.21
51261;BME280;61705;46.228;24.812;2023-02-18T11:36:02;97495.75;;;5.47;93.39
51261;BME280;61705;46.228;24.812;2023-02-18T11:38:35;97488.75;;;5.77;92.49
51261;BME280;61705;46.228;24.812;2023-02-18T11:41:06;97485.72;;;5.91;91.09
51261;BME280;61705;46.228;24.812;2023-02-18T11:43:34;97473.28;;;5.99;90.77
51261;BME280;61705;46.228;24.812;2023-02-18T11:48:43;97472.22;;;6.59;90.05
51261;BME280;61705;46.228;24.812;2023-02-18T11:51:22;97460.38;;;6.99;89.18
51261;BME280;61705;46.228;24.812;2023-02-18T11:56:27;97473.34;;;7.77;87.48
51261;BME280;61705;46.228;24.812;2023-02-18T11:58:55;97467.59;;;7.90;87.19
51261;BME280;61705;46.228;24.812;2023-02-18T12:04:18;97463.28;;;8.32;85.98
51261;BME280;61705;46.228;24.812;2023-02-18T12:09:47;97469.91;;;8.65;84.31
51261;BME280;61705;46.228;24.812;2023-02-18T12:12:16;97468.03;;;8.68;83.02
51261;BME280;61705;46.228;24.812;2023-02-18T12:14:47;97463.09;;;8.81;82.27
51261;BME280;61705;46.228;24.812;2023-02-18T12:23:16;97464.41;;;8.71;81.65
51261;BME280;61705;46.228;24.812;2023-02-18T12:31:35;97459.31;;;8.66;81.27
51261;BME280;61705;46.228;24.812;2023-02-18T13:01:12;97414.88;;;9.78;75.19
51261;BME280;61705;46.228;24.812;2023-02-18T13:06:37;97426.28;;;9.79;74.15
51261;BME280;61705;46.228;24.812;2023-02-18T13:14:15;97426.66;;;9.71;73.00
51261;BME280;61705;46.228;24.812;2023-02-18T13:16:46;97428.97;;;9.77;72.23
51261;BME280;61705;46.228;24.812;2023-02-18T13:19:19;97420.63;;;9.67;72.13
51261;BME280;61705;46.228;24.812;2023-02-18T13:21:48;97425.28;;;9.62;72.26
51261;BME280;61705;46.228;24.812;2023-02-18T13:24:20;97416.19;;;9.49;72.81
51261;BME280;61705;46.228;24.812;2023-02-18T13:26:49;97417.91;;;9.50;72.82
51261;BME280;61705;46.228;24.812;2023-02-18T13:34:58;97413.84;;;9.04;74.06
51261;BME280;61705;46.228;24.812;2023-02-18T13:40:25;97411.59;;;8.74;75.05
51261;BME280;61705;46.228;24.812;2023-02-18T13:49:10;97417.69;;;8.74;75.15
51261;BME280;61705;46.228;24.812;2023-02-18T13:51:39;97408.94;;;8.74;75.25
51261;BME280;61705;46.228;24.812;2023-02-18T14:01:53;97391.66;;;8.68;75.45
51261;BME280;61705;46.228;24.812;2023-02-18T14:10:25;97384.59;;;8.48;76.49
51261;BME280;61705;46.228;24.812;2023-02-18T14:20:30;97382.94;;;8.02;77.42
51261;BME280;61705;46.228;24.812;2023-02-18T14:22:58;97385.56;;;7.80;77.82
51261;BME280;61705;46.228;24.812;2023-02-18T14:31:02;97380.91;;;7.41;78.54
51261;BME280;61705;46.228;24.812;2023-02-18T14:33:31;97396.56;;;7.44;78.60
51261;BME280;61705;46.228;24.812;2023-02-18T14:41:07;97402.84;;;7.17;79.49
51261;BME280;61705;46.228;24.812;2023-02-18T14:51:39;97399.59;;;6.60;80.56
51261;BME280;61705;46.228;24.812;2023-02-18T14:54:13;97400.34;;;6.63;80.81
51261;BME280;61705;46.228;24.812;2023-02-18T14:59:19;97407.56;;;6.82;80.68
51261;BME280;61705;46.228;24.812;2023-02-18T15:01:47;97402.22;;;6.60;80.72
51261;BME280;61705;46.228;24.812;2023-02-18T15:04:14;97412.19;;;6.49;81.12
51261;BME280;61705;46.228;24.812;2023-02-18T15:06:43;97409.53;;;6.50;81.47
51261;BME280;61705;46.228;24.812;2023-02-18T15:09:20;97408.38;;;6.59;81.13
51261;BME280;61705;46.228;24.812;2023-02-18T15:11:55;97408.16;;;6.65;81.50
51261;BME280;61705;46.228;24.812;2023-02-18T15:14:33;97403.72;;;6.92;80.93
51261;BME280;61705;46.228;24.812;2023-02-18T15:17:05;97405.91;;;7.04;80.77
51261;BME280;61705;46.228;24.812;2023-02-18T15:19:43;97410.06;;;7.10;80.51
51261;BME280;61705;46.228;24.812;2023-02-18T15:22:20;97406.81;;;7.28;80.27
51261;BME280;61705;46.228;24.812;2023-02-18T15:24:49;97398.84;;;7.53;79.86
51261;BME280;61705;46.228;24.812;2023-02-18T15:27:19;97393.16;;;7.42;79.62
51261;BME280;61705;46.228;24.812;2023-02-18T15:29:51;97407.78;;;7.49;79.78
51261;BME280;61705;46.228;24.812;2023-02-18T15:34:57;97383.59;;;7.40;79.53
51261;BME280;61705;46.228;24.812;2023-02-18T15:37:28;97391.91;;;7.04;80.33
51261;BME280;61705;46.228;24.812;2023-02-18T15:39:55;97394.81;;;6.71;81.03
51261;BME280;61705;46.228;24.812;2023-02-18T15:42:27;97387.47;;;6.56;81.39
51261;BME280;61705;46.228;24.812;2023-02-18T15:45:13;97391.94;;;6.54;81.41
51261;BME280;61705;46.228;24.812;2023-02-18T15:47:43;97397.28;;;6.76;81.40
51261;BME280;61705;46.228;24.812;2023-02-18T15:52:48;97397.75;;;6.62;81.40
51261;BME280;61705;46.228;24.812;2023-02-18T15:55:34;97405.09;;;6.52;81.38
51261;BME280;61705;46.228;24.812;2023-02-18T15:58:20;97402.81;;;6.41;81.80
51261;BME280;61705;46.228;24.812;2023-02-18T16:01:35;97404.31;;;6.75;81.52
51261;BME280;61705;46.228;24.812;2023-02-18T16:03:45;97396.81;;;6.64;81.03
51261;BME280;61705;46.228;24.812;2023-02-18T16:09:10;97409.19;;;6.34;81.73
51261;BME280;61705;46.228;24.812;2023-02-18T16:11:42;97411.19;;;6.53;82.20
51261;BME280;61705;46.228;24.812;2023-02-18T16:17:07;97421.44;;;6.60;81.44
51261;BME280;61705;46.228;24.812;2023-02-18T16:20:00;97426.38;;;6.70;81.25
51261;BME280;61705;46.228;24.812;2023-02-18T16:27:52;97437.47;;;6.25;82.41
51261;BME280;61705;46.228;24.812;2023-02-18T16:32:52;97440.78;;;6.03;82.71
51261;BME280;61705;46.228;24.812;2023-02-18T16:35:21;97437.91;;;5.83;83.02
51261;BME280;61705;46.228;24.812;2023-02-18T16:37:52;97439.69;;;5.81;83.34
51261;BME280;61705;46.228;24.812;2023-02-18T16:40:23;97450.84;;;5.87;83.68
51261;BME280;61705;46.228;24.812;2023-02-18T16:42:53;97449.25;;;5.83;83.54
51261;BME280;61705;46.228;24.812;2023-02-18T16:45:31;97456.81;;;5.94;83.73
51261;BME280;61705;46.228;24.812;2023-02-18T16:47:58;97455.13;;;5.91;83.20
51261;BME280;61705;46.228;24.812;2023-02-18T16:50:27;97450.84;;;5.87;83.76
51261;BME280;61705;46.228;24.812;2023-02-18T16:52:55;97448.22;;;5.87;83.79
51261;BME280;61705;46.228;24.812;2023-02-18T16:55:25;97447.63;;;5.79;84.02
51261;BME280;61705;46.228;24.812;2023-02-18T16:57:53;97446.75;;;5.79;84.02
51261;BME280;61705;46.228;24.812;2023-02-18T17:00:21;97444.19;;;5.77;84.24
51261;BME280;61705;46.228;24.812;2023-02-18T17:02:50;97443.59;;;5.67;84.69
51261;BME280;61705;46.228;24.812;2023-02-18T17:05:43;97445.31;;;5.68;84.86